sensor_id;sensor_type;location;lat;lon;timestamp;temperature;humidity
8114;DHT22;4099;52.684;9.918;2023-07-30T00:04:16;17.20;99.90
8114;DHT22;4099;52.684;9.918;2023-07-30T00:09:20;17.10;99.90
8114;DHT22;4099;52.684;9.918;2023-07-30T00:14:21;17.00;99.90
8114;DHT22;4099;52.684;9.918;2023-07-30T00:19:24;17.00;99.90
8114;DHT22;4099;52.684;9.918;2023-07-30T00:24:27;16.90;99.90
8114;DHT22;4099;52.684;9.918;2023-07-30T00:29:29;16.80;99.90
8114;DHT22;4099;52.684;9.918;2023-07-30T00:34:31;16.70;99.90
8114;DHT22;4099;52.684;9.918;2023-07-30T00:39:34;16.60;99.90
8114;DHT22;4099;52.684;9.918;2023-07-30T00:44:36;16.60;99.90
8114;DHT22;4099;52.684;9.918;2023-07-30T00:49:37;16.70;99.90
8114;DHT22;4099;52.684;9.918;2023-07-30T00:54:41;16.80;99.90
8114;DHT22;4099;52.684;9.918;2023-07-30T00:59:43;16.90;99.90
8114;DHT22;4099;52.684;9.918;2023-07-30T01:04:45;17.00;99.90
8114;DHT22;4099;52.684;9.918;2023-07-30T01:09:48;17.00;99.90
8114;DHT22;4099;52.684;9.918;2023-07-30T01:14:51;17.10;99.90
8114;DHT22;4099;52.684;9.918;2023-07-30T01:19:54;17.00;99.90
8114;DHT22;4099;52.684;9.918;2023-07-30T01:24:57;16.90;99.90
8114;DHT22;4099;52.684;9.918;2023-07-30T01:30:05;16.90;99.90
8114;DHT22;4099;52.684;9.918;2023-07-30T01:35:09;16.80;99.90
8114;DHT22;4099;52.684;9.918;2023-07-30T01:40:12;16.70;99.90
8114;DHT22;4099;52.684;9.918;2023-07-30T01:45:15;16.80;99.90
8114;DHT22;4099;52.684;9.918;2023-07-30T01:50:17;16.60;99.90
8114;DHT22;4099;52.684;9.918;2023-07-30T01:55:20;16.60;99.90
8114;DHT22;4099;52.684;9.918;2023-07-30T02:00:22;16.50;99.90
8114;DHT22;4099;52.684;9.918;2023-07-30T02:05:24;16.50;99.90
8114;DHT22;4099;52.684;9.918;2023-07-30T02:10:27;16.40;99.90
8114;DHT22;4099;52.684;9.918;2023-07-30T02:15:29;16.10;99.90
8114;DHT22;4099;52.684;9.918;2023-07-30T02:20:31;16.20;99.90
8114;DHT22;4099;52.684;9.918;2023-07-30T02:25:50;16.00;99.90
8114;DHT22;4099;52.684;9.918;2023-07-30T02:30:52;16.00;99.90
8114;DHT22;4099;52.684;9.918;2023-07-30T02:35:53;15.90;99.90
8114;DHT22;4099;52.684;9.918;2023-07-30T02:40:57;15.90;99.90
8114;DHT22;4099;52.684;9.918;2023-07-30T02:45:58;15.80;99.90
8114;DHT22;4099;52.684;9.918;2023-07-30T02:51:00;15.60;99.90
8114;DHT22;4099;52.684;9.918;2023-07-30T02:56:04;15.60;99.90
8114;DHT22;4099;52.684;9.918;2023-07-30T03:01:06;15.70;99.90
8114;DHT22;4099;52.684;9.918;2023-07-30T03:06:08;15.80;99.90
8114;DHT22;4099;52.684;9.918;2023-07-30T03:11:11;15.80;99.90
8114;DHT22;4099;52.684;9.918;2023-07-30T03:16:14;15.80;99.90
8114;DHT22;4099;52.684;9.918;2023-07-30T03:21:16;15.80;99.90
8114;DHT22;4099;52.684;9.918;2023-07-30T03:26:19;15.80;99.90
8114;DHT22;4099;52.684;9.918;2023-07-30T03:31:21;15.80;99.90
8114;DHT22;4099;52.684;9.918;2023-07-30T03:36:23;15.80;99.90
8114;DHT22;4099;52.684;9.918;2023-07-30T03:41:26;15.70;99.90
8114;DHT22;4099;52.684;9.918;2023-07-30T03:46:28;15.70;99.90
8114;DHT22;4099;52.684;9.918;2023-07-30T03:51:29;15.70;99.90
8114;DHT22;4099;52.684;9.918;2023-07-30T03:56:32;15.70;99.90
8114;DHT22;4099;52.684;9.918;2023-07-30T04:01:34;15.70;99.90
8114;DHT22;4099;52.684;9.918;2023-07-30T04:06:36;15.70;99.90
8114;DHT22;4099;52.684;9.918;2023-07-30T04:11:39;15.80;99.90
8114;DHT22;4099;52.684;9.918;2023-07-30T04:16:41;15.70;99.90
8114;DHT22;4099;52.684;9.918;2023-07-30T04:21:47;15.70;99.90
8114;DHT22;4099;52.684;9.918;2023-07-30T04:26:50;15.70;99.90
8114;DHT22;4099;52.684;9.918;2023-07-30T04:31:52;15.80;99.90
8114;DHT22;4099;52.684;9.918;2023-07-30T04:36:54;15.70;99.90
8114;DHT22;4099;52.684;9.918;2023-07-30T04:41:58;15.70;99.90
8114;DHT22;4099;52.684;9.918;2023-07-30T04:47:01;15.70;99.90
8114;DHT22;4099;52.684;9.918;2023-07-30T04:52:04;15.80;99.90
8114;DHT22;4099;52.684;9.918;2023-07-30T04:57:07;15.90;99.90
8114;DHT22;4099;52.684;9.918;2023-07-30T05:02:09;16.00;99.90
8114;DHT22;4099;52.684;9.918;2023-07-30T05:07:11;16.00;99.90
8114;DHT22;4099;52.684;9.918;2023-07-30T05:12:14;16.10;99.90
8114;DHT22;4099;52.684;9.918;2023-07-30T05:17:16;16.10;99.90
8114;DHT22;4099;52.684;9.918;2023-07-30T05:22:17;16.20;99.90
8114;DHT22;4099;52.684;9.918;2023-07-30T05:27:21;16.30;99.90
8114;DHT22;4099;52.684;9.918;2023-07-30T05:32:23;16.40;99.90
8114;DHT22;4099;52.684;9.918;2023-07-30T05:37:24;16.30;99.90
8114;DHT22;4099;52.684;9.918;2023-07-30T05:42:27;16.40;99.90
8114;DHT22;4099;52.684;9.918;2023-07-30T05:47:29;16.40;99.90
8114;DHT22;4099;52.684;9.918;2023-07-30T05:52:31;16.60;99.90
8114;DHT22;4099;52.684;9.918;2023-07-30T05:57:34;16.80;99.90
8114;DHT22;4099;52.684;9.918;2023-07-30T06:02:36;16.90;99.90
8114;DHT22;4099;52.684;9.918;2023-07-30T06:07:38;17.00;99.90
8114;DHT22;4099;52.684;9.918;2023-07-30T06:12:41;17.10;99.90
8114;DHT22;4099;52.684;9.918;2023-07-30T06:17:43;17.20;99.90
8114;DHT22;4099;52.684;9.918;2023-07-30T06:22:44;17.30;99.90
8114;DHT22;4099;52.684;9.918;2023-07-30T06:27:47;17.50;99.90
8114;DHT22;4099;52.684;9.918;2023-07-30T06:32:49;17.50;99.90
8114;DHT22;4099;52.684;9.918;2023-07-30T06:37:51;17.80;99.90
8114;DHT22;4099;52.684;9.918;2023-07-30T06:42:54;18.10;99.90
8114;DHT22;4099;52.684;9.918;2023-07-30T06:47:56;18.10;99.90
8114;DHT22;4099;52.684;9.918;2023-07-30T06:52:58;18.20;99.90
8114;DHT22;4099;52.684;9.918;2023-07-30T06:58:01;18.40;99.90
8114;DHT22;4099;52.684;9.918;2023-07-30T07:03:03;18.70;99.90
8114;DHT22;4099;52.684;9.918;2023-07-30T07:08:05;18.90;99.90
8114;DHT22;4099;52.684;9.918;2023-07-30T07:13:08;19.20;99.90
8114;DHT22;4099;52.684;9.918;2023-07-30T07:18:11;19.60;99.90
8114;DHT22;4099;52.684;9.918;2023-07-30T07:23:12;19.40;99.90
8114;DHT22;4099;52.684;9.918;2023-07-30T07:28:16;19.50;99.90
8114;DHT22;4099;52.684;9.918;2023-07-30T07:33:19;19.50;99.90
8114;DHT22;4099;52.684;9.918;2023-07-30T07:38:21;19.60;99.90
8114;DHT22;4099;52.684;9.918;2023-07-30T07:43:24;19.90;99.90
8114;DHT22;4099;52.684;9.918;2023-07-30T07:48:26;19.80;99.90
8114;DHT22;4099;52.684;9.918;2023-07-30T07:53:28;19.90;99.90
8114;DHT22;4099;52.684;9.918;2023-07-30T07:58:31;20.20;99.90
8114;DHT22;4099;52.684;9.918;2023-07-30T08:03:34;20.50;99.90
8114;DHT22;4099;52.684;9.918;2023-07-30T08:08:35;20.60;99.90
8114;DHT22;4099;52.684;9.918;2023-07-30T08:13:39;20.50;99.90
8114;DHT22;4099;52.684;9.918;2023-07-30T08:18:40;20.20;99.90
8114;DHT22;4099;52.684;9.918;2023-07-30T08:23:42;20.40;99.90
8114;DHT22;4099;52.684;9.918;2023-07-30T08:28:45;20.70;99.90
8114;DHT22;4099;52.684;9.918;2023-07-30T08:33:47;21.20;99.90
8114;DHT22;4099;52.684;9.918;2023-07-30T08:38:49;21.30;99.90
8114;DHT22;4099;52.684;9.918;2023-07-30T08:43:52;21.10;99.90
8114;DHT22;4099;52.684;9.918;2023-07-30T08:48:54;21.30;99.90
8114;DHT22;4099;52.684;9.918;2023-07-30T08:53:58;21.60;99.90
8114;DHT22;4099;52.684;9.918;2023-07-30T08:59:03;21.90;99.90
8114;DHT22;4099;52.684;9.918;2023-07-30T09:04:07;21.90;99.90
8114;DHT22;4099;52.684;9.918;2023-07-30T09:09:10;21.80;99.90
8114;DHT22;4099;52.684;9.918;2023-07-30T09:14:14;21.90;99.90
8114;DHT22;4099;52.684;9.918;2023-07-30T09:19:20;22.00;99.90
8114;DHT22;4099;52.684;9.918;2023-07-30T09:24:22;22.00;99.90
8114;DHT22;4099;52.684;9.918;2023-07-30T09:29:25;21.90;99.90
8114;DHT22;4099;52.684;9.918;2023-07-30T09:34:27;21.70;99.90
8114;DHT22;4099;52.684;9.918;2023-07-30T09:39:30;21.40;99.90
8114;DHT22;4099;52.684;9.918;2023-07-30T09:44:34;21.30;99.90
8114;DHT22;4099;52.684;9.918;2023-07-30T09:49:37;21.30;99.90
8114;DHT22;4099;52.684;9.918;2023-07-30T09:54:39;20.90;99.90
8114;DHT22;4099;52.684;9.918;2023-07-30T09:59:43;21.40;99.90
8114;DHT22;4099;52.684;9.918;2023-07-30T10:04:49;22.10;99.90
8114;DHT22;4099;52.684;9.918;2023-07-30T10:09:55;22.50;99.90
8114;DHT22;4099;52.684;9.918;2023-07-30T10:15:02;22.20;99.90
8114;DHT22;4099;52.684;9.918;2023-07-30T10:20:24;22.20;99.90
8114;DHT22;4099;52.684;9.918;2023-07-30T10:25:28;22.10;99.90
8114;DHT22;4099;52.684;9.918;2023-07-30T10:30:33;21.90;99.90
8114;DHT22;4099;52.684;9.918;2023-07-30T10:35:40;21.80;99.90
8114;DHT22;4099;52.684;9.918;2023-07-30T10:40:42;21.10;99.90
8114;DHT22;4099;52.684;9.918;2023-07-30T10:46:02;20.90;99.90
8114;DHT22;4099;52.684;9.918;2023-07-30T10:51:05;20.80;99.90
8114;DHT22;4099;52.684;9.918;2023-07-30T10:56:09;20.90;99.90
8114;DHT22;4099;52.684;9.918;2023-07-30T11:01:12;21.00;99.90
8114;DHT22;4099;52.684;9.918;2023-07-30T11:06:20;20.90;99.90
8114;DHT22;4099;52.684;9.918;2023-07-30T11:11:22;21.10;99.90
8114;DHT22;4099;52.684;9.918;2023-07-30T11:16:27;21.40;99.90
8114;DHT22;4099;52.684;9.918;2023-07-30T11:21:28;21.00;99.90
8114;DHT22;4099;52.684;9.918;2023-07-30T11:26:30;20.90;99.90
8114;DHT22;4099;52.684;9.918;2023-07-30T11:31:33;21.10;99.90
8114;DHT22;4099;52.684;9.918;2023-07-30T11:36:35;21.40;99.90
8114;DHT22;4099;52.684;9.918;2023-07-30T11:41:38;21.50;99.90
8114;DHT22;4099;52.684;9.918;2023-07-30T11:46:53;22.00;99.90
8114;DHT22;4099;52.684;9.918;2023-07-30T11:52:04;21.90;99.90
8114;DHT22;4099;52.684;9.918;2023-07-30T11:57:06;21.60;99.90
8114;DHT22;4099;52.684;9.918;2023-07-30T12:02:17;21.70;99.90
8114;DHT22;4099;52.684;9.918;2023-07-30T12:07:22;22.10;99.90
8114;DHT22;4099;52.684;9.918;2023-07-30T12:12:25;22.20;99.90
8114;DHT22;4099;52.684;9.918;2023-07-30T12:17:28;22.50;99.90
8114;DHT22;4099;52.684;9.918;2023-07-30T12:22:30;22.70;99.90
8114;DHT22;4099;52.684;9.918;2023-07-30T12:27:32;22.70;99.90
8114;DHT22;4099;52.684;9.918;2023-07-30T12:32:35;22.50;99.90
8114;DHT22;4099;52.684;9.918;2023-07-30T12:37:37;23.00;99.90
8114;DHT22;4099;52.684;9.918;2023-07-30T12:42:38;22.90;99.90
8114;DHT22;4099;52.684;9.918;2023-07-30T12:47:42;22.60;99.90
8114;DHT22;4099;52.684;9.918;2023-07-30T12:52:45;22.50;99.90
8114;DHT22;4099;52.684;9.918;2023-07-30T12:57:47;22.50;99.90
8114;DHT22;4099;52.684;9.918;2023-07-30T13:02:50;22.70;99.90
8114;DHT22;4099;52.684;9.918;2023-07-30T13:07:55;23.60;99.90
8114;DHT22;4099;52.684;9.918;2023-07-30T13:12:57;23.80;97.90
8114;DHT22;4099;52.684;9.918;2023-07-30T13:18:00;23.20;98.10
8114;DHT22;4099;52.684;9.918;2023-07-30T13:23:02;23.20;99.90
8114;DHT22;4099;52.684;9.918;2023-07-30T13:28:04;23.20;97.30
8114;DHT22;4099;52.684;9.918;2023-07-30T13:33:07;22.80;97.90
8114;DHT22;4099;52.684;9.918;2023-07-30T13:38:09;22.60;98.10
8114;DHT22;4099;52.684;9.918;2023-07-30T13:43:11;22.50;98.00
8114;DHT22;4099;52.684;9.918;2023-07-30T13:48:14;23.20;98.00
8114;DHT22;4099;52.684;9.918;2023-07-30T13:53:16;23.00;97.90
8114;DHT22;4099;52.684;9.918;2023-07-30T13:58:18;22.40;97.10
8114;DHT22;4099;52.684;9.918;2023-07-30T14:03:21;21.90;98.90
8114;DHT22;4099;52.684;9.918;2023-07-30T14:08:23;21.80;99.90
8114;DHT22;4099;52.684;9.918;2023-07-30T14:13:25;21.50;99.90
8114;DHT22;4099;52.684;9.918;2023-07-30T14:18:28;21.20;99.90
8114;DHT22;4099;52.684;9.918;2023-07-30T14:23:30;20.90;99.90
8114;DHT22;4099;52.684;9.918;2023-07-30T14:28:32;20.30;99.90
8114;DHT22;4099;52.684;9.918;2023-07-30T14:33:35;19.90;99.90
8114;DHT22;4099;52.684;9.918;2023-07-30T14:38:37;19.60;99.90
8114;DHT22;4099;52.684;9.918;2023-07-30T14:43:39;19.80;99.90
8114;DHT22;4099;52.684;9.918;2023-07-30T14:48:42;19.90;99.90
8114;DHT22;4099;52.684;9.918;2023-07-30T14:53:44;20.00;99.90
8114;DHT22;4099;52.684;9.918;2023-07-30T14:58:45;20.20;99.90
8114;DHT22;4099;52.684;9.918;2023-07-30T15:03:49;20.30;99.90
8114;DHT22;4099;52.684;9.918;2023-07-30T15:08:52;20.10;99.90
8114;DHT22;4099;52.684;9.918;2023-07-30T15:13:53;20.00;99.90
8114;DHT22;4099;52.684;9.918;2023-07-30T15:18:57;19.90;99.90
8114;DHT22;4099;52.684;9.918;2023-07-30T15:23:59;19.60;99.90
8114;DHT22;4099;52.684;9.918;2023-07-30T15:29:01;19.80;99.90
8114;DHT22;4099;52.684;9.918;2023-07-30T15:34:05;19.70;99.90
8114;DHT22;4099;52.684;9.918;2023-07-30T15:39:07;19.30;99.90
8114;DHT22;4099;52.684;9.918;2023-07-30T15:44:09;18.90;99.90
8114;DHT22;4099;52.684;9.918;2023-07-30T15:49:12;19.00;99.90
8114;DHT22;4099;52.684;9.918;2023-07-30T15:54:16;19.40;99.90
8114;DHT22;4099;52.684;9.918;2023-07-30T15:59:18;19.50;99.90
8114;DHT22;4099;52.684;9.918;2023-07-30T16:04:21;19.50;99.90
8114;DHT22;4099;52.684;9.918;2023-07-30T16:09:23;19.40;99.90
8114;DHT22;4099;52.684;9.918;2023-07-30T16:14:25;19.50;99.90
8114;DHT22;4099;52.684;9.918;2023-07-30T16:19:28;20.00;99.90
8114;DHT22;4099;52.684;9.918;2023-07-30T16:24:29;20.20;99.90
8114;DHT22;4099;52.684;9.918;2023-07-30T16:29:31;20.30;99.90
8114;DHT22;4099;52.684;9.918;2023-07-30T16:34:35;20.80;99.90
8114;DHT22;4099;52.684;9.918;2023-07-30T16:39:37;21.50;99.90
8114;DHT22;4099;52.684;9.918;2023-07-30T16:44:38;22.90;99.90
8114;DHT22;4099;52.684;9.918;2023-07-30T16:49:42;23.80;99.90
8114;DHT22;4099;52.684;9.918;2023-07-30T16:54:44;24.70;99.60
8114;DHT22;4099;52.684;9.918;2023-07-30T16:59:45;23.60;99.90
8114;DHT22;4099;52.684;9.918;2023-07-30T17:04:49;22.00;99.90
8114;DHT22;4099;52.684;9.918;2023-07-30T17:09:51;21.10;99.90
8114;DHT22;4099;52.684;9.918;2023-07-30T17:14:53;20.50;99.90
8114;DHT22;4099;52.684;9.918;2023-07-30T17:19:56;20.20;99.90
8114;DHT22;4099;52.684;9.918;2023-07-30T17:24:59;19.40;99.90
8114;DHT22;4099;52.684;9.918;2023-07-30T17:30:02;18.10;99.90
8114;DHT22;4099;52.684;9.918;2023-07-30T17:35:06;17.60;99.90
8114;DHT22;4099;52.684;9.918;2023-07-30T17:40:09;17.80;99.90
8114;DHT22;4099;52.684;9.918;2023-07-30T17:45:11;18.10;99.90
8114;DHT22;4099;52.684;9.918;2023-07-30T17:50:15;17.80;99.90
8114;DHT22;4099;52.684;9.918;2023-07-30T17:55:16;17.50;99.90
8114;DHT22;4099;52.684;9.918;2023-07-30T18:00:18;17.40;99.90
8114;DHT22;4099;52.684;9.918;2023-07-30T18:05:22;17.20;99.90
8114;DHT22;4099;52.684;9.918;2023-07-30T18:10:23;17.00;99.90
8114;DHT22;4099;52.684;9.918;2023-07-30T18:15:25;16.80;99.90
8114;DHT22;4099;52.684;9.918;2023-07-30T18:20:29;16.90;99.90
8114;DHT22;4099;52.684;9.918;2023-07-30T18:25:31;16.70;99.90
8114;DHT22;4099;52.684;9.918;2023-07-30T18:30:33;16.60;99.90
8114;DHT22;4099;52.684;9.918;2023-07-30T18:35:37;16.40;99.90
8114;DHT22;4099;52.684;9.918;2023-07-30T18:40:39;16.40;99.90
8114;DHT22;4099;52.684;9.918;2023-07-30T18:45:41;16.40;99.90
8114;DHT22;4099;52.684;9.918;2023-07-30T18:50:46;16.40;99.90
8114;DHT22;4099;52.684;9.918;2023-07-30T18:55:48;16.40;99.90
8114;DHT22;4099;52.684;9.918;2023-07-30T19:00:50;16.30;99.90
8114;DHT22;4099;52.684;9.918;2023-07-30T19:05:55;16.30;99.90
8114;DHT22;4099;52.684;9.918;2023-07-30T19:10:57;16.50;99.90
8114;DHT22;4099;52.684;9.918;2023-07-30T19:15:59;16.70;99.90
8114;DHT22;4099;52.684;9.918;2023-07-30T19:21:02;16.90;99.90
8114;DHT22;4099;52.684;9.918;2023-07-30T19:26:04;16.90;99.90
8114;DHT22;4099;52.684;9.918;2023-07-30T19:31:06;16.90;99.90
8114;DHT22;4099;52.684;9.918;2023-07-30T19:36:10;16.80;99.90
8114;DHT22;4099;52.684;9.918;2023-07-30T19:41:12;16.70;99.90
8114;DHT22;4099;52.684;9.918;2023-07-30T19:46:14;16.70;99.90
8114;DHT22;4099;52.684;9.918;2023-07-30T19:51:17;16.60;99.90
8114;DHT22;4099;52.684;9.918;2023-07-30T19:56:19;16.50;99.90
8114;DHT22;4099;52.684;9.918;2023-07-30T20:01:21;16.20;99.90
8114;DHT22;4099;52.684;9.918;2023-07-30T20:06:24;16.20;99.90
8114;DHT22;4099;52.684;9.918;2023-07-30T20:11:26;16.20;99.90
8114;DHT22;4099;52.684;9.918;2023-07-30T20:16:28;16.10;99.90
8114;DHT22;4099;52.684;9.918;2023-07-30T20:21:31;16.00;99.90
8114;DHT22;4099;52.684;9.918;2023-07-30T20:26:33;16.00;99.90
8114;DHT22;4099;52.684;9.918;2023-07-30T20:31:35;15.90;99.90
8114;DHT22;4099;52.684;9.918;2023-07-30T20:36:39;15.60;99.90
8114;DHT22;4099;52.684;9.918;2023-07-30T20:41:41;15.70;99.90
8114;DHT22;4099;52.684;9.918;2023-07-30T20:46:43;15.90;99.90
8114;DHT22;4099;52.684;9.918;2023-07-30T20:51:46;15.80;99.90
8114;DHT22;4099;52.684;9.918;2023-07-30T20:56:48;15.60;99.90
8114;DHT22;4099;52.684;9.918;2023-07-30T21:01:49;15.40;99.90
8114;DHT22;4099;52.684;9.918;2023-07-30T21:06:53;15.50;99.90
8114;DHT22;4099;52.684;9.918;2023-07-30T21:11:54;15.30;99.90
8114;DHT22;4099;52.684;9.918;2023-07-30T21:16:56;15.40;99.90
8114;DHT22;4099;52.684;9.918;2023-07-30T21:22:00;15.50;99.90
8114;DHT22;4099;52.684;9.918;2023-07-30T21:27:02;15.60;99.90
8114;DHT22;4099;52.684;9.918;2023-07-30T21:32:04;15.40;99.90
8114;DHT22;4099;52.684;9.918;2023-07-30T21:37:08;15.20;99.90
8114;DHT22;4099;52.684;9.918;2023-07-30T21:42:10;15.30;99.90
8114;DHT22;4099;52.684;9.918;2023-07-30T21:47:11;15.40;99.90
8114;DHT22;4099;52.684;9.918;2023-07-30T21:52:25;15.50;99.90
8114;DHT22;4099;52.684;9.918;2023-07-30T21:57:27;15.60;99.90
8114;DHT22;4099;52.684;9.918;2023-07-30T22:02:29;15.70;99.90
8114;DHT22;4099;52.684;9.918;2023-07-30T22:07:32;15.80;99.90
8114;DHT22;4099;52.684;9.918;2023-07-30T22:12:34;15.80;99.90
8114;DHT22;4099;52.684;9.918;2023-07-30T22:17:35;15.80;99.90
8114;DHT22;4099;52.684;9.918;2023-07-30T22:22:39;15.80;99.90
8114;DHT22;4099;52.684;9.918;2023-07-30T22:27:40;15.80;99.90
8114;DHT22;4099;52.684;9.918;2023-07-30T22:32:44;15.80;99.90
8114;DHT22;4099;52.684;9.918;2023-07-30T22:37:47;15.70;99.90
8114;DHT22;4099;52.684;9.918;2023-07-30T22:42:49;15.60;99.90
8114;DHT22;4099;52.684;9.918;2023-07-30T22:47:51;15.50;99.90
8114;DHT22;4099;52.684;9.918;2023-07-30T22:52:55;15.40;99.90
8114;DHT22;4099;52.684;9.918;2023-07-30T22:57:57;15.40;99.90
8114;DHT22;4099;52.684;9.918;2023-07-30T23:02:58;15.30;99.90
8114;DHT22;4099;52.684;9.918;2023-07-30T23:08:02;15.30;99.90
8114;DHT22;4099;52.684;9.918;2023-07-30T23:13:04;15.30;99.90
8114;DHT22;4099;52.684;9.918;2023-07-30T23:18:06;15.50;99.90
8114;DHT22;4099;52.684;9.918;2023-07-30T23:23:09;15.40;99.90
8114;DHT22;4099;52.684;9.918;2023-07-30T23:28:11;15.50;99.90
8114;DHT22;4099;52.684;9.918;2023-07-30T23:33:12;15.50;99.90
8114;DHT22;4099;52.684;9.918;2023-07-30T23:38:16;15.60;99.90
8114;DHT22;4099;52.684;9.918;2023-07-30T23:43:17;15.60;99.90
8114;DHT22;4099;52.684;9.918;2023-07-30T23:48:19;15.70;99.90
8114;DHT22;4099;52.684;9.918;2023-07-30T23:53:22;15.60;99.90
8114;DHT22;4099;52.684;9.918;2023-07-30T23:58:24;15.70;99.90
